Pagrindinis puslapis
METAR-TAF:

METAR-TAF

Oro uostai :

Alpnach, Šveicarija

platuma: 46-56-19N, ilguma: 8-17-03E, Aukštis: 440 m

Dabartinis oras

Ataskaita buvo paskelbta 24 minutes, ne 22:50 UTC
Vėjas 3 kt iš Pietų/Pietvakarių, svyruoja nuo Pietų/Pietryčių ir Pietvakarių
Temperatūra 8°C
Drėgmė 76%
Slėgis 1026 hPa
Matomumas 10 km arba daugiau

METAR: LSMA 072250Z AUTO 20003KT 160V230 9999NDV NCD 08/04 Q1026 RMK

Laikas: 01:14 (23:14 UTC)


TAF: trūkstamas

Orai ataskaitas ir orų prognozės (METAR, TAF).

turimą stotys yra geltonos ir raudonos taškus žemėlapyje.

Perkelti pele per norėdami pamatyti stoties vardą.

Tada spustelėkite, norėdami matyti oro stebėjimo ir prognozės.

Norėdami pakeisti žemėlapį: spustelėkite ant žalios mygtukų su juodo kryžiaus žemyn,; žalią mygtuką su brūkšneliu, jei norite nutolinti; arba žalių rodyklių gretimoms žemėlapius.


METAR-TAF: